sensor_id;sensor_type;location;lat;lon;timestamp;P1;durP1;ratioP1;P2;durP2;ratioP2
42084;SDS011;27746;52.228;20.890;2023-07-22T00:00:41;6.32;;;4.82;;
42084;SDS011;27746;52.228;20.890;2023-07-22T00:03:08;8.85;;;5.82;;
42084;SDS011;27746;52.228;20.890;2023-07-22T00:05:35;6.97;;;4.80;;
42084;SDS011;27746;52.228;20.890;2023-07-22T00:08:03;7.50;;;5.43;;
42084;SDS011;27746;52.228;20.890;2023-07-22T00:10:30;6.55;;;5.05;;
42084;SDS011;27746;52.228;20.890;2023-07-22T00:12:58;9.63;;;5.38;;
42084;SDS011;27746;52.228;20.890;2023-07-22T00:15:24;6.15;;;5.07;;
42084;SDS011;27746;52.228;20.890;2023-07-22T00:17:53;8.30;;;5.55;;
42084;SDS011;27746;52.228;20.890;2023-07-22T00:20:21;7.65;;;5.15;;
42084;SDS011;27746;52.228;20.890;2023-07-22T00:22:48;9.05;;;5.95;;
42084;SDS011;27746;52.228;20.890;2023-07-22T00:25:18;7.85;;;5.68;;
42084;SDS011;27746;52.228;20.890;2023-07-22T00:27:45;7.25;;;5.20;;
42084;SDS011;27746;52.228;20.890;2023-07-22T00:30:12;7.05;;;5.43;;
42084;SDS011;27746;52.228;20.890;2023-07-22T00:32:39;7.65;;;5.43;;
42084;SDS011;27746;52.228;20.890;2023-07-22T00:35:08;7.13;;;5.72;;
42084;SDS011;27746;52.228;20.890;2023-07-22T00:37:35;7.07;;;5.38;;
42084;SDS011;27746;52.228;20.890;2023-07-22T00:40:03;6.90;;;5.32;;
42084;SDS011;27746;52.228;20.890;2023-07-22T00:42:35;8.10;;;5.30;;
42084;SDS011;27746;52.228;20.890;2023-07-22T00:45:02;7.97;;;5.70;;
42084;SDS011;27746;52.228;20.890;2023-07-22T00:47:29;8.18;;;6.35;;
42084;SDS011;27746;52.228;20.890;2023-07-22T00:49:56;7.22;;;5.70;;
42084;SDS011;27746;52.228;20.890;2023-07-22T00:52:23;7.47;;;5.57;;
42084;SDS011;27746;52.228;20.890;2023-07-22T00:54:50;7.32;;;5.93;;
42084;SDS011;27746;52.228;20.890;2023-07-22T00:57:17;7.05;;;5.85;;
42084;SDS011;27746;52.228;20.890;2023-07-22T00:59:46;8.68;;;5.93;;
42084;SDS011;27746;52.228;20.890;2023-07-22T01:02:13;7.88;;;5.82;;
42084;SDS011;27746;52.228;20.890;2023-07-22T01:04:41;8.05;;;5.68;;
42084;SDS011;27746;52.228;20.890;2023-07-22T01:07:08;8.15;;;6.28;;
42084;SDS011;27746;52.228;20.890;2023-07-22T01:09:36;8.38;;;5.72;;
42084;SDS011;27746;52.228;20.890;2023-07-22T01:12:03;8.95;;;6.40;;
42084;SDS011;27746;52.228;20.890;2023-07-22T01:14:32;8.52;;;6.28;;
42084;SDS011;27746;52.228;20.890;2023-07-22T01:17:01;8.82;;;6.75;;
42084;SDS011;27746;52.228;20.890;2023-07-22T01:19:29;8.95;;;6.22;;
42084;SDS011;27746;52.228;20.890;2023-07-22T01:21:56;8.55;;;6.55;;
42084;SDS011;27746;52.228;20.890;2023-07-22T01:24:27;8.52;;;6.00;;
42084;SDS011;27746;52.228;20.890;2023-07-22T01:26:54;8.93;;;6.00;;
42084;SDS011;27746;52.228;20.890;2023-07-22T01:29:21;9.25;;;7.30;;
42084;SDS011;27746;52.228;20.890;2023-07-22T01:31:49;7.45;;;5.75;;
42084;SDS011;27746;52.228;20.890;2023-07-22T01:34:17;10.15;;;6.55;;
42084;SDS011;27746;52.228;20.890;2023-07-22T01:36:45;8.85;;;6.35;;
42084;SDS011;27746;52.228;20.890;2023-07-22T01:39:13;8.63;;;5.75;;
42084;SDS011;27746;52.228;20.890;2023-07-22T01:41:42;10.88;;;7.72;;
42084;SDS011;27746;52.228;20.890;2023-07-22T01:44:09;8.82;;;6.38;;
42084;SDS011;27746;52.228;20.890;2023-07-22T01:46:37;8.00;;;6.63;;
42084;SDS011;27746;52.228;20.890;2023-07-22T01:49:05;9.55;;;6.80;;
42084;SDS011;27746;52.228;20.890;2023-07-22T01:51:35;8.95;;;7.22;;
42084;SDS011;27746;52.228;20.890;2023-07-22T01:54:03;8.45;;;6.43;;
42084;SDS011;27746;52.228;20.890;2023-07-22T01:56:30;10.23;;;6.40;;
42084;SDS011;27746;52.228;20.890;2023-07-22T01:58:58;8.95;;;7.47;;
42084;SDS011;27746;52.228;20.890;2023-07-22T02:01:25;9.30;;;7.25;;
42084;SDS011;27746;52.228;20.890;2023-07-22T02:03:53;10.15;;;6.57;;
42084;SDS011;27746;52.228;20.890;2023-07-22T02:06:20;9.15;;;7.32;;
42084;SDS011;27746;52.228;20.890;2023-07-22T02:08:47;9.40;;;6.53;;
42084;SDS011;27746;52.228;20.890;2023-07-22T02:11:14;8.40;;;7.13;;
42084;SDS011;27746;52.228;20.890;2023-07-22T02:13:41;10.15;;;7.72;;
42084;SDS011;27746;52.228;20.890;2023-07-22T02:16:10;9.15;;;6.72;;
42084;SDS011;27746;52.228;20.890;2023-07-22T02:18:37;9.52;;;7.47;;
42084;SDS011;27746;52.228;20.890;2023-07-22T02:21:04;11.52;;;8.13;;
42084;SDS011;27746;52.228;20.890;2023-07-22T02:23:32;10.48;;;8.02;;
42084;SDS011;27746;52.228;20.890;2023-07-22T02:25:59;11.75;;;8.30;;
42084;SDS011;27746;52.228;20.890;2023-07-22T02:28:25;10.27;;;7.93;;
42084;SDS011;27746;52.228;20.890;2023-07-22T02:30:53;11.20;;;8.52;;
42084;SDS011;27746;52.228;20.890;2023-07-22T02:33:21;12.55;;;8.10;;
42084;SDS011;27746;52.228;20.890;2023-07-22T02:35:48;10.40;;;8.15;;
42084;SDS011;27746;52.228;20.890;2023-07-22T02:38:15;10.27;;;8.23;;
42084;SDS011;27746;52.228;20.890;2023-07-22T02:40:43;10.32;;;7.68;;
42084;SDS011;27746;52.228;20.890;2023-07-22T02:43:10;12.73;;;9.38;;
42084;SDS011;27746;52.228;20.890;2023-07-22T02:45:37;13.75;;;8.25;;
42084;SDS011;27746;52.228;20.890;2023-07-22T02:48:04;14.75;;;11.07;;
42084;SDS011;27746;52.228;20.890;2023-07-22T02:50:32;13.20;;;9.43;;
42084;SDS011;27746;52.228;20.890;2023-07-22T02:52:59;11.40;;;9.85;;
42084;SDS011;27746;52.228;20.890;2023-07-22T02:55:26;12.82;;;9.98;;
42084;SDS011;27746;52.228;20.890;2023-07-22T02:57:54;14.45;;;10.60;;
42084;SDS011;27746;52.228;20.890;2023-07-22T03:00:21;12.23;;;10.13;;
42084;SDS011;27746;52.228;20.890;2023-07-22T03:02:49;11.43;;;9.05;;
42084;SDS011;27746;52.228;20.890;2023-07-22T03:05:17;11.93;;;8.43;;
42084;SDS011;27746;52.228;20.890;2023-07-22T03:07:46;12.85;;;9.35;;
42084;SDS011;27746;52.228;20.890;2023-07-22T03:10:13;14.60;;;10.23;;
42084;SDS011;27746;52.228;20.890;2023-07-22T03:12:40;12.00;;;8.50;;
42084;SDS011;27746;52.228;20.890;2023-07-22T03:15:07;11.93;;;9.13;;
42084;SDS011;27746;52.228;20.890;2023-07-22T03:17:37;12.20;;;9.00;;
42084;SDS011;27746;52.228;20.890;2023-07-22T03:20:04;11.63;;;9.05;;
42084;SDS011;27746;52.228;20.890;2023-07-22T03:22:39;12.85;;;9.02;;
42084;SDS011;27746;52.228;20.890;2023-07-22T03:25:08;13.27;;;9.65;;
42084;SDS011;27746;52.228;20.890;2023-07-22T03:27:35;16.38;;;10.02;;
42084;SDS011;27746;52.228;20.890;2023-07-22T03:30:03;12.00;;;8.80;;
42084;SDS011;27746;52.228;20.890;2023-07-22T03:32:31;9.68;;;8.40;;
42084;SDS011;27746;52.228;20.890;2023-07-22T03:34:58;11.63;;;9.10;;
42084;SDS011;27746;52.228;20.890;2023-07-22T03:37:26;10.88;;;8.43;;
42084;SDS011;27746;52.228;20.890;2023-07-22T03:39:54;11.38;;;8.80;;
42084;SDS011;27746;52.228;20.890;2023-07-22T03:42:22;10.77;;;8.18;;
42084;SDS011;27746;52.228;20.890;2023-07-22T03:44:49;11.85;;;9.15;;
42084;SDS011;27746;52.228;20.890;2023-07-22T03:47:16;12.80;;;9.13;;
42084;SDS011;27746;52.228;20.890;2023-07-22T03:49:44;11.15;;;8.60;;
42084;SDS011;27746;52.228;20.890;2023-07-22T03:52:10;12.40;;;9.38;;
42084;SDS011;27746;52.228;20.890;2023-07-22T03:54:39;9.70;;;8.52;;
42084;SDS011;27746;52.228;20.890;2023-07-22T03:57:06;9.85;;;8.07;;
42084;SDS011;27746;52.228;20.890;2023-07-22T03:59:34;10.50;;;8.57;;
42084;SDS011;27746;52.228;20.890;2023-07-22T04:02:01;12.30;;;9.18;;
42084;SDS011;27746;52.228;20.890;2023-07-22T04:04:29;13.00;;;9.65;;
42084;SDS011;27746;52.228;20.890;2023-07-22T04:06:55;10.57;;;8.65;;
42084;SDS011;27746;52.228;20.890;2023-07-22T04:09:23;11.93;;;9.63;;
42084;SDS011;27746;52.228;20.890;2023-07-22T04:11:50;13.48;;;9.73;;
42084;SDS011;27746;52.228;20.890;2023-07-22T04:14:17;12.43;;;8.90;;
42084;SDS011;27746;52.228;20.890;2023-07-22T04:16:45;10.10;;;7.70;;
42084;SDS011;27746;52.228;20.890;2023-07-22T04:19:12;9.82;;;8.13;;
42084;SDS011;27746;52.228;20.890;2023-07-22T04:21:39;16.35;;;8.55;;
42084;SDS011;27746;52.228;20.890;2023-07-22T04:24:06;10.77;;;8.45;;
42084;SDS011;27746;52.228;20.890;2023-07-22T04:26:34;11.73;;;8.63;;
42084;SDS011;27746;52.228;20.890;2023-07-22T04:29:01;12.00;;;9.07;;
42084;SDS011;27746;52.228;20.890;2023-07-22T04:31:29;11.43;;;8.25;;
42084;SDS011;27746;52.228;20.890;2023-07-22T04:33:58;11.35;;;7.95;;
42084;SDS011;27746;52.228;20.890;2023-07-22T04:36:25;13.80;;;8.60;;
42084;SDS011;27746;52.228;20.890;2023-07-22T04:38:52;9.60;;;8.10;;
42084;SDS011;27746;52.228;20.890;2023-07-22T04:41:19;11.85;;;8.48;;
42084;SDS011;27746;52.228;20.890;2023-07-22T04:43:46;9.98;;;7.93;;
42084;SDS011;27746;52.228;20.890;2023-07-22T04:46:15;10.38;;;7.70;;
42084;SDS011;27746;52.228;20.890;2023-07-22T04:48:43;9.65;;;7.45;;
42084;SDS011;27746;52.228;20.890;2023-07-22T04:51:11;10.20;;;7.68;;
42084;SDS011;27746;52.228;20.890;2023-07-22T04:53:38;9.63;;;7.53;;
42084;SDS011;27746;52.228;20.890;2023-07-22T04:56:05;11.82;;;7.95;;
42084;SDS011;27746;52.228;20.890;2023-07-22T04:58:32;10.35;;;8.13;;
42084;SDS011;27746;52.228;20.890;2023-07-22T05:00:59;10.25;;;8.70;;
42084;SDS011;27746;52.228;20.890;2023-07-22T05:03:26;11.15;;;8.35;;
42084;SDS011;27746;52.228;20.890;2023-07-22T05:05:53;10.65;;;8.60;;
42084;SDS011;27746;52.228;20.890;2023-07-22T05:08:21;12.02;;;8.40;;
42084;SDS011;27746;52.228;20.890;2023-07-22T05:10:48;11.90;;;9.00;;
42084;SDS011;27746;52.228;20.890;2023-07-22T05:13:15;11.07;;;8.65;;
42084;SDS011;27746;52.228;20.890;2023-07-22T05:15:42;11.63;;;9.05;;
42084;SDS011;27746;52.228;20.890;2023-07-22T05:18:09;12.23;;;8.32;;
42084;SDS011;27746;52.228;20.890;2023-07-22T05:20:37;12.38;;;9.20;;
42084;SDS011;27746;52.228;20.890;2023-07-22T05:23:04;17.38;;;9.90;;
42084;SDS011;27746;52.228;20.890;2023-07-22T05:25:32;10.73;;;8.73;;
42084;SDS011;27746;52.228;20.890;2023-07-22T05:27:59;12.50;;;8.98;;
42084;SDS011;27746;52.228;20.890;2023-07-22T05:30:26;12.10;;;8.90;;
42084;SDS011;27746;52.228;20.890;2023-07-22T05:32:53;11.05;;;8.93;;
42084;SDS011;27746;52.228;20.890;2023-07-22T05:35:21;12.98;;;8.77;;
42084;SDS011;27746;52.228;20.890;2023-07-22T05:37:48;12.43;;;8.45;;
42084;SDS011;27746;52.228;20.890;2023-07-22T05:40:17;12.88;;;8.23;;
42084;SDS011;27746;52.228;20.890;2023-07-22T05:42:45;11.77;;;9.18;;
42084;SDS011;27746;52.228;20.890;2023-07-22T05:45:11;10.38;;;8.18;;
42084;SDS011;27746;52.228;20.890;2023-07-22T05:47:40;9.93;;;8.07;;
42084;SDS011;27746;52.228;20.890;2023-07-22T05:50:07;11.77;;;8.57;;
42084;SDS011;27746;52.228;20.890;2023-07-22T05:52:34;11.63;;;7.93;;
42084;SDS011;27746;52.228;20.890;2023-07-22T05:55:02;11.02;;;8.10;;
42084;SDS011;27746;52.228;20.890;2023-07-22T05:57:29;9.82;;;7.55;;
42084;SDS011;27746;52.228;20.890;2023-07-22T05:59:58;9.35;;;7.10;;
42084;SDS011;27746;52.228;20.890;2023-07-22T06:02:24;11.00;;;7.18;;
42084;SDS011;27746;52.228;20.890;2023-07-22T06:04:52;11.75;;;7.05;;
42084;SDS011;27746;52.228;20.890;2023-07-22T06:07:19;11.85;;;7.72;;
42084;SDS011;27746;52.228;20.890;2023-07-22T06:09:46;9.60;;;6.55;;
42084;SDS011;27746;52.228;20.890;2023-07-22T06:12:13;10.20;;;7.70;;
42084;SDS011;27746;52.228;20.890;2023-07-22T06:14:40;8.23;;;6.93;;
42084;SDS011;27746;52.228;20.890;2023-07-22T06:17:09;7.70;;;6.18;;
42084;SDS011;27746;52.228;20.890;2023-07-22T06:19:35;10.45;;;6.90;;
42084;SDS011;27746;52.228;20.890;2023-07-22T06:22:03;8.23;;;6.93;;
42084;SDS011;27746;52.228;20.890;2023-07-22T06:24:30;10.20;;;7.03;;
42084;SDS011;27746;52.228;20.890;2023-07-22T06:26:57;7.55;;;6.13;;
42084;SDS011;27746;52.228;20.890;2023-07-22T06:29:24;7.82;;;6.30;;
42084;SDS011;27746;52.228;20.890;2023-07-22T06:31:50;8.35;;;6.25;;
42084;SDS011;27746;52.228;20.890;2023-07-22T06:34:19;9.13;;;6.00;;
42084;SDS011;27746;52.228;20.890;2023-07-22T06:36:46;8.18;;;5.90;;
42084;SDS011;27746;52.228;20.890;2023-07-22T06:39:13;7.97;;;5.40;;
42084;SDS011;27746;52.228;20.890;2023-07-22T06:41:40;7.78;;;5.25;;
42084;SDS011;27746;52.228;20.890;2023-07-22T06:44:07;8.82;;;4.80;;
42084;SDS011;27746;52.228;20.890;2023-07-22T06:46:35;5.85;;;3.90;;
42084;SDS011;27746;52.228;20.890;2023-07-22T06:49:02;5.50;;;3.70;;
42084;SDS011;27746;52.228;20.890;2023-07-22T06:51:30;7.82;;;4.65;;
42084;SDS011;27746;52.228;20.890;2023-07-22T06:53:57;6.25;;;3.97;;
42084;SDS011;27746;52.228;20.890;2023-07-22T06:56:24;5.82;;;3.80;;
42084;SDS011;27746;52.228;20.890;2023-07-22T06:58:52;4.47;;;3.22;;
42084;SDS011;27746;52.228;20.890;2023-07-22T07:01:19;5.90;;;3.30;;
42084;SDS011;27746;52.228;20.890;2023-07-22T07:03:46;6.97;;;3.50;;
42084;SDS011;27746;52.228;20.890;2023-07-22T07:06:13;5.97;;;3.17;;
42084;SDS011;27746;52.228;20.890;2023-07-22T07:08:42;5.93;;;3.63;;
42084;SDS011;27746;52.228;20.890;2023-07-22T07:11:09;6.57;;;3.53;;
42084;SDS011;27746;52.228;20.890;2023-07-22T07:13:36;5.25;;;3.05;;
42084;SDS011;27746;52.228;20.890;2023-07-22T07:18:45;5.70;;;3.20;;
42084;SDS011;27746;52.228;20.890;2023-07-22T07:21:12;6.72;;;3.25;;
42084;SDS011;27746;52.228;20.890;2023-07-22T07:23:39;6.78;;;3.95;;
42084;SDS011;27746;52.228;20.890;2023-07-22T07:26:07;5.00;;;3.10;;
42084;SDS011;27746;52.228;20.890;2023-07-22T07:28:34;4.90;;;2.80;;
42084;SDS011;27746;52.228;20.890;2023-07-22T07:31:01;7.57;;;3.20;;
42084;SDS011;27746;52.228;20.890;2023-07-22T07:33:28;6.57;;;3.33;;
42084;SDS011;27746;52.228;20.890;2023-07-22T07:35:55;6.05;;;3.10;;
42084;SDS011;27746;52.228;20.890;2023-07-22T07:38:22;8.57;;;2.70;;
42084;SDS011;27746;52.228;20.890;2023-07-22T07:40:51;5.20;;;2.33;;
42084;SDS011;27746;52.228;20.890;2023-07-22T07:43:20;3.85;;;2.40;;
42084;SDS011;27746;52.228;20.890;2023-07-22T07:45:47;5.30;;;2.50;;
42084;SDS011;27746;52.228;20.890;2023-07-22T07:48:14;4.10;;;2.78;;
42084;SDS011;27746;52.228;20.890;2023-07-22T07:50:41;5.35;;;2.28;;
42084;SDS011;27746;52.228;20.890;2023-07-22T07:53:08;5.95;;;2.15;;
42084;SDS011;27746;52.228;20.890;2023-07-22T07:55:35;6.15;;;2.13;;
42084;SDS011;27746;52.228;20.890;2023-07-22T07:58:02;3.63;;;2.28;;
42084;SDS011;27746;52.228;20.890;2023-07-22T08:00:30;4.85;;;2.58;;
42084;SDS011;27746;52.228;20.890;2023-07-22T08:02:58;5.03;;;2.05;;
42084;SDS011;27746;52.228;20.890;2023-07-22T08:05:26;5.90;;;2.40;;
42084;SDS011;27746;52.228;20.890;2023-07-22T08:07:53;5.70;;;2.05;;
42084;SDS011;27746;52.228;20.890;2023-07-22T08:10:20;5.25;;;2.08;;
42084;SDS011;27746;52.228;20.890;2023-07-22T08:12:47;9.30;;;2.30;;
42084;SDS011;27746;52.228;20.890;2023-07-22T08:15:14;5.38;;;2.10;;
42084;SDS011;27746;52.228;20.890;2023-07-22T08:17:43;7.78;;;1.90;;
42084;SDS011;27746;52.228;20.890;2023-07-22T08:20:10;5.13;;;1.95;;
42084;SDS011;27746;52.228;20.890;2023-07-22T08:22:37;4.20;;;1.80;;
42084;SDS011;27746;52.228;20.890;2023-07-22T08:25:05;3.85;;;1.90;;
42084;SDS011;27746;52.228;20.890;2023-07-22T08:27:32;3.47;;;2.03;;
42084;SDS011;27746;52.228;20.890;2023-07-22T08:29:59;4.88;;;1.73;;
42084;SDS011;27746;52.228;20.890;2023-07-22T08:32:26;3.95;;;1.77;;
42084;SDS011;27746;52.228;20.890;2023-07-22T08:34:55;3.58;;;2.10;;
42084;SDS011;27746;52.228;20.890;2023-07-22T08:37:22;4.55;;;2.00;;
42084;SDS011;27746;52.228;20.890;2023-07-22T08:39:49;4.18;;;2.13;;
42084;SDS011;27746;52.228;20.890;2023-07-22T08:42:16;8.18;;;2.45;;
42084;SDS011;27746;52.228;20.890;2023-07-22T08:44:46;7.32;;;2.13;;
42084;SDS011;27746;52.228;20.890;2023-07-22T08:47:15;5.57;;;1.77;;
42084;SDS011;27746;52.228;20.890;2023-07-22T08:49:42;3.70;;;1.70;;
42084;SDS011;27746;52.228;20.890;2023-07-22T08:52:17;4.93;;;1.90;;
42084;SDS011;27746;52.228;20.890;2023-07-22T08:54:45;4.05;;;1.90;;
42084;SDS011;27746;52.228;20.890;2023-07-22T08:57:12;4.18;;;1.80;;
42084;SDS011;27746;52.228;20.890;2023-07-22T08:59:39;4.70;;;2.20;;
42084;SDS011;27746;52.228;20.890;2023-07-22T09:02:08;4.78;;;1.90;;
42084;SDS011;27746;52.228;20.890;2023-07-22T09:04:38;3.70;;;1.80;;
42084;SDS011;27746;52.228;20.890;2023-07-22T09:07:05;4.82;;;2.35;;
42084;SDS011;27746;52.228;20.890;2023-07-22T09:09:35;4.32;;;1.60;;
42084;SDS011;27746;52.228;20.890;2023-07-22T09:12:02;4.70;;;2.60;;
42084;SDS011;27746;52.228;20.890;2023-07-22T09:14:30;4.25;;;1.88;;
42084;SDS011;27746;52.228;20.890;2023-07-22T09:16:58;3.97;;;1.75;;
42084;SDS011;27746;52.228;20.890;2023-07-22T09:19:25;5.28;;;2.20;;
42084;SDS011;27746;52.228;20.890;2023-07-22T09:21:52;4.68;;;2.05;;
42084;SDS011;27746;52.228;20.890;2023-07-22T09:24:20;5.25;;;2.95;;
42084;SDS011;27746;52.228;20.890;2023-07-22T09:26:48;6.25;;;2.70;;
42084;SDS011;27746;52.228;20.890;2023-07-22T09:29:15;4.60;;;2.40;;
42084;SDS011;27746;52.228;20.890;2023-07-22T09:31:49;6.45;;;2.75;;
42084;SDS011;27746;52.228;20.890;2023-07-22T09:34:17;4.53;;;2.03;;
42084;SDS011;27746;52.228;20.890;2023-07-22T09:36:49;5.78;;;2.40;;
42084;SDS011;27746;52.228;20.890;2023-07-22T09:39:18;5.53;;;2.00;;
42084;SDS011;27746;52.228;20.890;2023-07-22T09:41:45;5.15;;;2.13;;
42084;SDS011;27746;52.228;20.890;2023-07-22T09:44:13;5.15;;;2.10;;
42084;SDS011;27746;52.228;20.890;2023-07-22T09:46:40;4.40;;;1.67;;
42084;SDS011;27746;52.228;20.890;2023-07-22T09:49:08;5.60;;;1.52;;
42084;SDS011;27746;52.228;20.890;2023-07-22T09:51:38;5.18;;;2.38;;
42084;SDS011;27746;52.228;20.890;2023-07-22T09:54:06;4.45;;;1.73;;
42084;SDS011;27746;52.228;20.890;2023-07-22T09:56:42;5.07;;;1.75;;
42084;SDS011;27746;52.228;20.890;2023-07-22T09:59:10;2.97;;;1.40;;
42084;SDS011;27746;52.228;20.890;2023-07-22T10:01:39;2.22;;;1.33;;
42084;SDS011;27746;52.228;20.890;2023-07-22T10:04:07;4.57;;;1.50;;
42084;SDS011;27746;52.228;20.890;2023-07-22T10:06:36;4.38;;;1.50;;
42084;SDS011;27746;52.228;20.890;2023-07-22T10:09:05;2.88;;;1.55;;
42084;SDS011;27746;52.228;20.890;2023-07-22T10:11:37;4.43;;;1.58;;
42084;SDS011;27746;52.228;20.890;2023-07-22T10:14:05;3.13;;;1.60;;
42084;SDS011;27746;52.228;20.890;2023-07-22T10:16:32;3.53;;;1.52;;
42084;SDS011;27746;52.228;20.890;2023-07-22T10:19:01;3.95;;;1.52;;
42084;SDS011;27746;52.228;20.890;2023-07-22T10:21:29;2.40;;;1.30;;
42084;SDS011;27746;52.228;20.890;2023-07-22T10:23:57;6.97;;;1.63;;
42084;SDS011;27746;52.228;20.890;2023-07-22T10:26:27;6.78;;;1.98;;
42084;SDS011;27746;52.228;20.890;2023-07-22T10:28:54;4.15;;;1.33;;
42084;SDS011;27746;52.228;20.890;2023-07-22T10:31:22;2.35;;;1.20;;
42084;SDS011;27746;52.228;20.890;2023-07-22T10:33:49;4.30;;;1.52;;
42084;SDS011;27746;52.228;20.890;2023-07-22T10:36:19;3.50;;;1.48;;
42084;SDS011;27746;52.228;20.890;2023-07-22T10:38:54;3.42;;;1.55;;
42084;SDS011;27746;52.228;20.890;2023-07-22T10:41:22;7.78;;;1.77;;
42084;SDS011;27746;52.228;20.890;2023-07-22T10:43:53;3.40;;;1.55;;
42084;SDS011;27746;52.228;20.890;2023-07-22T10:46:30;5.03;;;1.40;;
42084;SDS011;27746;52.228;20.890;2023-07-22T10:49:06;5.47;;;1.55;;
42084;SDS011;27746;52.228;20.890;2023-07-22T10:51:37;6.68;;;1.83;;
42084;SDS011;27746;52.228;20.890;2023-07-22T10:54:10;4.90;;;1.45;;
42084;SDS011;27746;52.228;20.890;2023-07-22T10:56:37;3.58;;;1.48;;
42084;SDS011;27746;52.228;20.890;2023-07-22T10:59:05;4.03;;;1.35;;
42084;SDS011;27746;52.228;20.890;2023-07-22T11:01:32;3.60;;;1.33;;
42084;SDS011;27746;52.228;20.890;2023-07-22T11:04:07;4.22;;;1.40;;
42084;SDS011;27746;52.228;20.890;2023-07-22T11:06:51;4.72;;;1.45;;
42084;SDS011;27746;52.228;20.890;2023-07-22T11:09:33;4.82;;;1.23;;
42084;SDS011;27746;52.228;20.890;2023-07-22T11:12:09;2.67;;;1.27;;
42084;SDS011;27746;52.228;20.890;2023-07-22T11:14:44;3.53;;;1.40;;
42084;SDS011;27746;52.228;20.890;2023-07-22T11:17:12;4.67;;;1.53;;
42084;SDS011;27746;52.228;20.890;2023-07-22T11:19:40;5.60;;;1.80;;
42084;SDS011;27746;52.228;20.890;2023-07-22T11:22:08;6.13;;;1.92;;
42084;SDS011;27746;52.228;20.890;2023-07-22T11:24:35;2.80;;;1.42;;
42084;SDS011;27746;52.228;20.890;2023-07-22T11:27:03;3.22;;;1.55;;
42084;SDS011;27746;52.228;20.890;2023-07-22T11:29:31;2.88;;;1.50;;
42084;SDS011;27746;52.228;20.890;2023-07-22T11:31:58;3.22;;;1.55;;
42084;SDS011;27746;52.228;20.890;2023-07-22T11:34:25;4.07;;;1.73;;
42084;SDS011;27746;52.228;20.890;2023-07-22T11:36:52;2.80;;;1.73;;
42084;SDS011;27746;52.228;20.890;2023-07-22T11:39:23;3.33;;;1.52;;
42084;SDS011;27746;52.228;20.890;2023-07-22T11:41:50;6.15;;;2.00;;
42084;SDS011;27746;52.228;20.890;2023-07-22T11:44:18;3.03;;;1.88;;
42084;SDS011;27746;52.228;20.890;2023-07-22T11:46:46;6.07;;;1.88;;
42084;SDS011;27746;52.228;20.890;2023-07-22T11:49:21;3.05;;;1.75;;
42084;SDS011;27746;52.228;20.890;2023-07-22T11:51:49;5.50;;;1.60;;
42084;SDS011;27746;52.228;20.890;2023-07-22T11:54:16;3.00;;;1.40;;
42084;SDS011;27746;52.228;20.890;2023-07-22T11:56:45;3.00;;;1.60;;
42084;SDS011;27746;52.228;20.890;2023-07-22T11:59:12;10.38;;;2.22;;
42084;SDS011;27746;52.228;20.890;2023-07-22T12:01:39;4.90;;;1.67;;
42084;SDS011;27746;52.228;20.890;2023-07-22T12:04:09;3.67;;;1.40;;
42084;SDS011;27746;52.228;20.890;2023-07-22T12:06:37;4.38;;;1.90;;
42084;SDS011;27746;52.228;20.890;2023-07-22T12:09:04;5.50;;;1.65;;
42084;SDS011;27746;52.228;20.890;2023-07-22T12:11:33;3.83;;;1.75;;
42084;SDS011;27746;52.228;20.890;2023-07-22T12:14:08;3.72;;;1.67;;
42084;SDS011;27746;52.228;20.890;2023-07-22T12:16:37;3.20;;;1.70;;
42084;SDS011;27746;52.228;20.890;2023-07-22T12:19:05;3.88;;;1.60;;
42084;SDS011;27746;52.228;20.890;2023-07-22T12:21:33;3.83;;;1.67;;
42084;SDS011;27746;52.228;20.890;2023-07-22T12:24:00;2.33;;;1.30;;
42084;SDS011;27746;52.228;20.890;2023-07-22T12:26:29;3.78;;;1.50;;
42084;SDS011;27746;52.228;20.890;2023-07-22T12:28:56;4.25;;;1.75;;
42084;SDS011;27746;52.228;20.890;2023-07-22T12:31:25;2.47;;;1.30;;
42084;SDS011;27746;52.228;20.890;2023-07-22T12:33:52;4.85;;;1.70;;
42084;SDS011;27746;52.228;20.890;2023-07-22T12:36:19;3.50;;;1.73;;
42084;SDS011;27746;52.228;20.890;2023-07-22T12:38:46;8.20;;;2.15;;
42084;SDS011;27746;52.228;20.890;2023-07-22T12:41:13;3.38;;;1.73;;
42084;SDS011;27746;52.228;20.890;2023-07-22T12:43:40;3.92;;;1.67;;
42084;SDS011;27746;52.228;20.890;2023-07-22T12:46:07;4.07;;;1.50;;
42084;SDS011;27746;52.228;20.890;2023-07-22T12:48:37;3.67;;;1.27;;
42084;SDS011;27746;52.228;20.890;2023-07-22T12:51:04;3.55;;;1.60;;
42084;SDS011;27746;52.228;20.890;2023-07-22T12:53:31;4.93;;;1.50;;
42084;SDS011;27746;52.228;20.890;2023-07-22T12:55:58;4.88;;;1.60;;
42084;SDS011;27746;52.228;20.890;2023-07-22T12:58:25;3.97;;;1.70;;
42084;SDS011;27746;52.228;20.890;2023-07-22T13:00:52;3.35;;;1.60;;
42084;SDS011;27746;52.228;20.890;2023-07-22T13:03:18;4.43;;;1.60;;
42084;SDS011;27746;52.228;20.890;2023-07-22T13:05:47;4.13;;;1.60;;
42084;SDS011;27746;52.228;20.890;2023-07-22T13:08:13;4.40;;;1.88;;
42084;SDS011;27746;52.228;20.890;2023-07-22T13:10:40;4.25;;;1.90;;
42084;SDS011;27746;52.228;20.890;2023-07-22T13:13:09;5.38;;;1.80;;
42084;SDS011;27746;52.228;20.890;2023-07-22T13:15:37;6.20;;;2.00;;
42084;SDS011;27746;52.228;20.890;2023-07-22T13:18:03;4.05;;;2.20;;
42084;SDS011;27746;52.228;20.890;2023-07-22T13:20:31;5.72;;;2.20;;
42084;SDS011;27746;52.228;20.890;2023-07-22T13:22:59;7.20;;;1.55;;
42084;SDS011;27746;52.228;20.890;2023-07-22T13:25:26;4.40;;;1.73;;
42084;SDS011;27746;52.228;20.890;2023-07-22T13:27:55;3.55;;;1.73;;
42084;SDS011;27746;52.228;20.890;2023-07-22T13:30:22;3.72;;;1.60;;
42084;SDS011;27746;52.228;20.890;2023-07-22T13:32:48;3.10;;;1.45;;
42084;SDS011;27746;52.228;20.890;2023-07-22T13:35:15;3.67;;;1.52;;
42084;SDS011;27746;52.228;20.890;2023-07-22T13:37:43;6.35;;;1.80;;
42084;SDS011;27746;52.228;20.890;2023-07-22T13:40:12;3.85;;;1.35;;
42084;SDS011;27746;52.228;20.890;2023-07-22T13:42:39;3.42;;;1.50;;
42084;SDS011;27746;52.228;20.890;2023-07-22T13:45:06;3.85;;;1.70;;
42084;SDS011;27746;52.228;20.890;2023-07-22T13:47:33;3.55;;;1.60;;
42084;SDS011;27746;52.228;20.890;2023-07-22T13:50:00;5.80;;;1.92;;
42084;SDS011;27746;52.228;20.890;2023-07-22T13:52:27;4.30;;;1.40;;
42084;SDS011;27746;52.228;20.890;2023-07-22T13:54:54;2.95;;;1.65;;
42084;SDS011;27746;52.228;20.890;2023-07-22T13:57:22;3.53;;;1.42;;
42084;SDS011;27746;52.228;20.890;2023-07-22T13:59:49;4.22;;;1.50;;
42084;SDS011;27746;52.228;20.890;2023-07-22T14:02:16;5.35;;;2.03;;
42084;SDS011;27746;52.228;20.890;2023-07-22T14:04:42;3.88;;;1.50;;
42084;SDS011;27746;52.228;20.890;2023-07-22T14:07:10;4.95;;;1.65;;
42084;SDS011;27746;52.228;20.890;2023-07-22T14:09:36;4.75;;;1.77;;
42084;SDS011;27746;52.228;20.890;2023-07-22T14:12:04;3.85;;;1.98;;
42084;SDS011;27746;52.228;20.890;2023-07-22T14:14:32;2.83;;;1.48;;
42084;SDS011;27746;52.228;20.890;2023-07-22T14:16:59;4.43;;;2.13;;
42084;SDS011;27746;52.228;20.890;2023-07-22T14:19:26;5.10;;;2.10;;
42084;SDS011;27746;52.228;20.890;2023-07-22T14:21:53;5.85;;;1.88;;
42084;SDS011;27746;52.228;20.890;2023-07-22T14:24:20;5.35;;;2.20;;
42084;SDS011;27746;52.228;20.890;2023-07-22T14:26:47;6.60;;;1.83;;
42084;SDS011;27746;52.228;20.890;2023-07-22T14:29:14;5.78;;;2.38;;
42084;SDS011;27746;52.228;20.890;2023-07-22T14:31:43;4.25;;;1.85;;
42084;SDS011;27746;52.228;20.890;2023-07-22T14:34:10;3.95;;;1.80;;
42084;SDS011;27746;52.228;20.890;2023-07-22T14:36:35;5.75;;;1.80;;